sensor_id;sensor_type;location;lat;lon;timestamp;P1;durP1;ratioP1;P2;durP2;ratioP2
48743;SDS011;34538;48.836;9.174;2023-09-19T00:02:21;0.40;;;0.40;;
48743;SDS011;34538;48.836;9.174;2023-09-19T00:04:48;1.30;;;0.68;;
48743;SDS011;34538;48.836;9.174;2023-09-19T00:07:15;0.93;;;0.75;;
48743;SDS011;34538;48.836;9.174;2023-09-19T00:09:42;2.30;;;0.98;;
48743;SDS011;34538;48.836;9.174;2023-09-19T00:12:09;1.20;;;0.50;;
48743;SDS011;34538;48.836;9.174;2023-09-19T00:14:38;1.35;;;0.82;;
48743;SDS011;34538;48.836;9.174;2023-09-19T00:17:05;1.90;;;0.77;;
48743;SDS011;34538;48.836;9.174;2023-09-19T00:19:35;3.33;;;0.85;;
48743;SDS011;34538;48.836;9.174;2023-09-19T00:22:03;2.33;;;1.10;;
48743;SDS011;34538;48.836;9.174;2023-09-19T00:24:30;1.13;;;0.70;;
48743;SDS011;34538;48.836;9.174;2023-09-19T00:26:56;3.20;;;0.98;;
48743;SDS011;34538;48.836;9.174;2023-09-19T00:29:24;1.48;;;0.52;;
48743;SDS011;34538;48.836;9.174;2023-09-19T00:31:54;1.15;;;0.50;;
48743;SDS011;34538;48.836;9.174;2023-09-19T00:34:22;1.58;;;0.70;;
48743;SDS011;34538;48.836;9.174;2023-09-19T00:36:51;2.17;;;0.60;;
48743;SDS011;34538;48.836;9.174;2023-09-19T00:39:19;1.85;;;0.60;;
48743;SDS011;34538;48.836;9.174;2023-09-19T00:41:47;1.05;;;0.52;;
48743;SDS011;34538;48.836;9.174;2023-09-19T00:44:14;0.77;;;0.50;;
48743;SDS011;34538;48.836;9.174;2023-09-19T00:46:42;1.70;;;0.82;;
48743;SDS011;34538;48.836;9.174;2023-09-19T00:49:13;2.97;;;0.93;;
48743;SDS011;34538;48.836;9.174;2023-09-19T00:51:41;1.35;;;0.73;;
48743;SDS011;34538;48.836;9.174;2023-09-19T00:54:13;1.70;;;0.60;;
48743;SDS011;34538;48.836;9.174;2023-09-19T00:59:11;1.48;;;0.57;;
48743;SDS011;34538;48.836;9.174;2023-09-19T01:01:38;1.58;;;0.82;;
48743;SDS011;34538;48.836;9.174;2023-09-19T01:04:05;1.67;;;0.80;;
48743;SDS011;34538;48.836;9.174;2023-09-19T01:06:32;1.58;;;0.55;;
48743;SDS011;34538;48.836;9.174;2023-09-19T01:08:59;2.17;;;0.90;;
48743;SDS011;34538;48.836;9.174;2023-09-19T01:11:31;1.98;;;0.55;;
48743;SDS011;34538;48.836;9.174;2023-09-19T01:14:08;1.48;;;0.77;;
48743;SDS011;34538;48.836;9.174;2023-09-19T01:16:42;0.60;;;0.50;;
48743;SDS011;34538;48.836;9.174;2023-09-19T01:19:23;1.77;;;0.70;;
48743;SDS011;34538;48.836;9.174;2023-09-19T01:22:10;0.90;;;0.50;;
48743;SDS011;34538;48.836;9.174;2023-09-19T01:24:56;2.58;;;0.73;;
48743;SDS011;34538;48.836;9.174;2023-09-19T01:27:58;2.60;;;0.70;;
48743;SDS011;34538;48.836;9.174;2023-09-19T01:30:42;1.83;;;0.68;;
48743;SDS011;34538;48.836;9.174;2023-09-19T01:33:10;0.70;;;0.50;;
48743;SDS011;34538;48.836;9.174;2023-09-19T01:35:37;1.75;;;0.50;;
48743;SDS011;34538;48.836;9.174;2023-09-19T01:38:04;0.63;;;0.40;;
48743;SDS011;34538;48.836;9.174;2023-09-19T01:40:36;2.33;;;0.50;;
48743;SDS011;34538;48.836;9.174;2023-09-19T01:43:09;1.10;;;0.50;;
48743;SDS011;34538;48.836;9.174;2023-09-19T01:45:46;1.90;;;0.70;;
48743;SDS011;34538;48.836;9.174;2023-09-19T01:48:19;0.98;;;0.55;;
48743;SDS011;34538;48.836;9.174;2023-09-19T01:50:55;1.25;;;0.70;;
48743;SDS011;34538;48.836;9.174;2023-09-19T01:53:26;1.20;;;0.60;;
48743;SDS011;34538;48.836;9.174;2023-09-19T01:55:57;2.53;;;0.60;;
48743;SDS011;34538;48.836;9.174;2023-09-19T01:58:27;1.77;;;0.80;;
48743;SDS011;34538;48.836;9.174;2023-09-19T02:01:00;2.00;;;0.60;;
48743;SDS011;34538;48.836;9.174;2023-09-19T02:03:31;1.85;;;0.70;;
48743;SDS011;34538;48.836;9.174;2023-09-19T02:05:59;0.55;;;0.40;;
48743;SDS011;34538;48.836;9.174;2023-09-19T02:08:28;0.90;;;0.70;;
48743;SDS011;34538;48.836;9.174;2023-09-19T02:10:58;1.52;;;0.57;;
48743;SDS011;34538;48.836;9.174;2023-09-19T02:13:25;1.00;;;0.60;;
48743;SDS011;34538;48.836;9.174;2023-09-19T02:15:53;1.08;;;0.50;;
48743;SDS011;34538;48.836;9.174;2023-09-19T02:18:22;0.90;;;0.50;;
48743;SDS011;34538;48.836;9.174;2023-09-19T02:20:49;1.60;;;0.50;;
48743;SDS011;34538;48.836;9.174;2023-09-19T02:23:18;0.47;;;0.43;;
48743;SDS011;34538;48.836;9.174;2023-09-19T02:25:51;1.40;;;0.47;;
48743;SDS011;34538;48.836;9.174;2023-09-19T02:28:18;2.05;;;0.60;;
48743;SDS011;34538;48.836;9.174;2023-09-19T02:30:47;0.75;;;0.50;;
48743;SDS011;34538;48.836;9.174;2023-09-19T02:33:15;0.98;;;0.60;;
48743;SDS011;34538;48.836;9.174;2023-09-19T02:35:43;1.65;;;0.77;;
48743;SDS011;34538;48.836;9.174;2023-09-19T02:38:11;0.70;;;0.60;;
48743;SDS011;34538;48.836;9.174;2023-09-19T02:40:39;0.52;;;0.52;;
48743;SDS011;34538;48.836;9.174;2023-09-19T02:43:08;0.47;;;0.47;;
48743;SDS011;34538;48.836;9.174;2023-09-19T02:45:36;1.45;;;0.60;;
48743;SDS011;34538;48.836;9.174;2023-09-19T02:48:03;0.65;;;0.50;;
48743;SDS011;34538;48.836;9.174;2023-09-19T02:50:30;1.00;;;0.55;;
48743;SDS011;34538;48.836;9.174;2023-09-19T02:53:00;2.70;;;0.55;;
48743;SDS011;34538;48.836;9.174;2023-09-19T02:55:27;1.33;;;0.50;;
48743;SDS011;34538;48.836;9.174;2023-09-19T02:57:55;3.42;;;1.10;;
48743;SDS011;34538;48.836;9.174;2023-09-19T03:00:22;2.33;;;0.77;;
48743;SDS011;34538;48.836;9.174;2023-09-19T03:02:50;2.50;;;1.02;;
48743;SDS011;34538;48.836;9.174;2023-09-19T03:05:19;1.55;;;0.80;;
48743;SDS011;34538;48.836;9.174;2023-09-19T03:07:46;1.15;;;0.60;;
48743;SDS011;34538;48.836;9.174;2023-09-19T03:10:17;1.00;;;0.60;;
48743;SDS011;34538;48.836;9.174;2023-09-19T03:12:45;1.83;;;0.60;;
48743;SDS011;34538;48.836;9.174;2023-09-19T03:15:13;1.90;;;0.60;;
48743;SDS011;34538;48.836;9.174;2023-09-19T03:17:44;2.70;;;0.93;;
48743;SDS011;34538;48.836;9.174;2023-09-19T03:20:11;1.23;;;0.57;;
48743;SDS011;34538;48.836;9.174;2023-09-19T03:22:41;1.33;;;0.50;;
48743;SDS011;34538;48.836;9.174;2023-09-19T03:25:08;1.80;;;0.65;;
48743;SDS011;34538;48.836;9.174;2023-09-19T03:27:40;3.00;;;1.17;;
48743;SDS011;34538;48.836;9.174;2023-09-19T03:30:08;1.13;;;0.65;;
48743;SDS011;34538;48.836;9.174;2023-09-19T03:32:43;2.92;;;0.50;;
48743;SDS011;34538;48.836;9.174;2023-09-19T03:35:11;0.65;;;0.60;;
48743;SDS011;34538;48.836;9.174;2023-09-19T03:37:40;1.75;;;0.65;;
48743;SDS011;34538;48.836;9.174;2023-09-19T03:40:08;3.25;;;0.60;;
48743;SDS011;34538;48.836;9.174;2023-09-19T03:42:37;0.65;;;0.45;;
48743;SDS011;34538;48.836;9.174;2023-09-19T03:45:07;1.20;;;0.50;;
48743;SDS011;34538;48.836;9.174;2023-09-19T03:47:37;1.13;;;0.65;;
48743;SDS011;34538;48.836;9.174;2023-09-19T03:50:06;1.42;;;0.68;;
48743;SDS011;34538;48.836;9.174;2023-09-19T03:52:36;0.88;;;0.50;;
48743;SDS011;34538;48.836;9.174;2023-09-19T03:55:03;3.78;;;0.85;;
48743;SDS011;34538;48.836;9.174;2023-09-19T03:57:31;2.13;;;0.57;;
48743;SDS011;34538;48.836;9.174;2023-09-19T03:59:57;2.88;;;0.75;;
48743;SDS011;34538;48.836;9.174;2023-09-19T04:02:25;1.20;;;0.60;;
48743;SDS011;34538;48.836;9.174;2023-09-19T04:04:58;1.73;;;0.70;;
48743;SDS011;34538;48.836;9.174;2023-09-19T04:07:25;0.85;;;0.55;;
48743;SDS011;34538;48.836;9.174;2023-09-19T04:09:54;3.80;;;0.80;;
48743;SDS011;34538;48.836;9.174;2023-09-19T04:12:21;1.80;;;0.90;;
48743;SDS011;34538;48.836;9.174;2023-09-19T04:14:48;1.98;;;0.90;;
48743;SDS011;34538;48.836;9.174;2023-09-19T04:17:15;2.22;;;0.85;;
48743;SDS011;34538;48.836;9.174;2023-09-19T04:19:45;1.35;;;0.68;;
48743;SDS011;34538;48.836;9.174;2023-09-19T04:22:11;1.40;;;0.95;;
48743;SDS011;34538;48.836;9.174;2023-09-19T04:24:38;1.30;;;0.77;;
48743;SDS011;34538;48.836;9.174;2023-09-19T04:27:05;3.30;;;1.08;;
48743;SDS011;34538;48.836;9.174;2023-09-19T04:29:32;2.70;;;1.00;;
48743;SDS011;34538;48.836;9.174;2023-09-19T04:32:00;2.45;;;1.00;;
48743;SDS011;34538;48.836;9.174;2023-09-19T04:34:29;2.60;;;1.00;;
48743;SDS011;34538;48.836;9.174;2023-09-19T04:36:57;3.70;;;1.38;;
48743;SDS011;34538;48.836;9.174;2023-09-19T04:39:25;4.60;;;1.23;;
48743;SDS011;34538;48.836;9.174;2023-09-19T04:41:52;2.15;;;1.00;;
48743;SDS011;34538;48.836;9.174;2023-09-19T04:44:20;2.47;;;1.08;;
48743;SDS011;34538;48.836;9.174;2023-09-19T04:46:47;1.60;;;1.17;;
48743;SDS011;34538;48.836;9.174;2023-09-19T04:49:13;1.48;;;1.17;;
48743;SDS011;34538;48.836;9.174;2023-09-19T04:51:40;1.80;;;1.02;;
48743;SDS011;34538;48.836;9.174;2023-09-19T04:54:09;2.75;;;1.23;;
48743;SDS011;34538;48.836;9.174;2023-09-19T04:56:36;1.55;;;0.93;;
48743;SDS011;34538;48.836;9.174;2023-09-19T04:59:05;2.13;;;1.08;;
48743;SDS011;34538;48.836;9.174;2023-09-19T05:01:32;2.78;;;1.30;;
48743;SDS011;34538;48.836;9.174;2023-09-19T05:03:58;1.90;;;1.20;;
48743;SDS011;34538;48.836;9.174;2023-09-19T05:06:26;2.47;;;1.10;;
48743;SDS011;34538;48.836;9.174;2023-09-19T05:08:52;2.35;;;1.30;;
48743;SDS011;34538;48.836;9.174;2023-09-19T05:11:21;2.15;;;1.42;;
48743;SDS011;34538;48.836;9.174;2023-09-19T05:13:48;2.22;;;1.30;;
48743;SDS011;34538;48.836;9.174;2023-09-19T05:16:15;2.00;;;1.08;;
48743;SDS011;34538;48.836;9.174;2023-09-19T05:18:43;3.42;;;1.40;;
48743;SDS011;34538;48.836;9.174;2023-09-19T05:21:09;1.98;;;1.40;;
48743;SDS011;34538;48.836;9.174;2023-09-19T05:23:37;2.40;;;1.05;;
48743;SDS011;34538;48.836;9.174;2023-09-19T05:26:04;2.40;;;1.40;;
48743;SDS011;34538;48.836;9.174;2023-09-19T05:28:32;4.72;;;1.40;;
48743;SDS011;34538;48.836;9.174;2023-09-19T05:31:00;1.92;;;1.23;;
48743;SDS011;34538;48.836;9.174;2023-09-19T05:33:27;3.67;;;1.25;;
48743;SDS011;34538;48.836;9.174;2023-09-19T05:35:55;3.97;;;1.75;;
48743;SDS011;34538;48.836;9.174;2023-09-19T05:38:22;2.67;;;1.45;;
48743;SDS011;34538;48.836;9.174;2023-09-19T05:40:52;2.95;;;1.90;;
48743;SDS011;34538;48.836;9.174;2023-09-19T05:43:19;4.78;;;1.77;;
48743;SDS011;34538;48.836;9.174;2023-09-19T05:45:48;4.30;;;1.55;;
48743;SDS011;34538;48.836;9.174;2023-09-19T05:48:17;4.40;;;1.48;;
48743;SDS011;34538;48.836;9.174;2023-09-19T05:50:46;3.58;;;1.77;;
48743;SDS011;34538;48.836;9.174;2023-09-19T05:53:14;3.15;;;1.58;;
48743;SDS011;34538;48.836;9.174;2023-09-19T05:55:41;2.65;;;1.38;;
48743;SDS011;34538;48.836;9.174;2023-09-19T05:58:08;3.60;;;1.50;;
48743;SDS011;34538;48.836;9.174;2023-09-19T06:00:35;3.03;;;1.40;;
48743;SDS011;34538;48.836;9.174;2023-09-19T06:03:03;1.77;;;1.38;;
48743;SDS011;34538;48.836;9.174;2023-09-19T06:05:30;1.88;;;1.20;;
48743;SDS011;34538;48.836;9.174;2023-09-19T06:07:57;2.92;;;1.80;;
48743;SDS011;34538;48.836;9.174;2023-09-19T06:10:25;2.80;;;1.25;;
48743;SDS011;34538;48.836;9.174;2023-09-19T06:12:53;2.50;;;1.40;;
48743;SDS011;34538;48.836;9.174;2023-09-19T06:15:23;2.97;;;1.35;;
48743;SDS011;34538;48.836;9.174;2023-09-19T06:17:52;2.92;;;1.55;;
48743;SDS011;34538;48.836;9.174;2023-09-19T06:20:22;5.20;;;1.75;;
48743;SDS011;34538;48.836;9.174;2023-09-19T06:22:50;4.13;;;2.05;;
48743;SDS011;34538;48.836;9.174;2023-09-19T06:25:18;2.90;;;1.80;;
48743;SDS011;34538;48.836;9.174;2023-09-19T06:27:45;5.80;;;2.08;;
48743;SDS011;34538;48.836;9.174;2023-09-19T06:30:12;2.67;;;2.00;;
48743;SDS011;34538;48.836;9.174;2023-09-19T06:32:39;6.47;;;2.10;;
48743;SDS011;34538;48.836;9.174;2023-09-19T06:35:09;6.25;;;2.28;;
48743;SDS011;34538;48.836;9.174;2023-09-19T06:37:37;5.43;;;2.05;;
48743;SDS011;34538;48.836;9.174;2023-09-19T06:40:06;4.68;;;2.10;;
48743;SDS011;34538;48.836;9.174;2023-09-19T06:42:38;6.50;;;2.50;;
48743;SDS011;34538;48.836;9.174;2023-09-19T06:45:06;5.95;;;2.08;;
48743;SDS011;34538;48.836;9.174;2023-09-19T06:47:34;5.55;;;2.03;;
48743;SDS011;34538;48.836;9.174;2023-09-19T06:50:01;4.95;;;2.50;;
48743;SDS011;34538;48.836;9.174;2023-09-19T06:52:30;3.58;;;1.90;;
48743;SDS011;34538;48.836;9.174;2023-09-19T06:54:59;3.85;;;2.15;;
48743;SDS011;34538;48.836;9.174;2023-09-19T06:57:28;4.50;;;2.17;;
48743;SDS011;34538;48.836;9.174;2023-09-19T06:59:55;5.35;;;2.50;;
48743;SDS011;34538;48.836;9.174;2023-09-19T07:02:22;7.13;;;2.10;;
48743;SDS011;34538;48.836;9.174;2023-09-19T07:04:49;3.88;;;1.90;;
48743;SDS011;34538;48.836;9.174;2023-09-19T07:07:16;4.47;;;1.95;;
48743;SDS011;34538;48.836;9.174;2023-09-19T07:09:43;2.08;;;1.42;;
48743;SDS011;34538;48.836;9.174;2023-09-19T07:12:11;4.95;;;1.90;;
48743;SDS011;34538;48.836;9.174;2023-09-19T07:14:38;4.90;;;1.83;;
48743;SDS011;34538;48.836;9.174;2023-09-19T07:17:05;2.55;;;1.60;;
48743;SDS011;34538;48.836;9.174;2023-09-19T07:19:33;3.88;;;1.73;;
48743;SDS011;34538;48.836;9.174;2023-09-19T07:21:59;3.85;;;1.38;;
48743;SDS011;34538;48.836;9.174;2023-09-19T07:24:27;6.50;;;1.67;;
48743;SDS011;34538;48.836;9.174;2023-09-19T07:26:54;4.10;;;1.77;;
48743;SDS011;34538;48.836;9.174;2023-09-19T07:29:23;3.72;;;1.60;;
48743;SDS011;34538;48.836;9.174;2023-09-19T07:31:51;4.03;;;1.40;;
48743;SDS011;34538;48.836;9.174;2023-09-19T07:34:18;4.10;;;1.65;;
48743;SDS011;34538;48.836;9.174;2023-09-19T07:36:47;2.80;;;1.48;;
48743;SDS011;34538;48.836;9.174;2023-09-19T07:39:13;3.08;;;1.52;;
48743;SDS011;34538;48.836;9.174;2023-09-19T07:41:40;4.75;;;1.67;;
48743;SDS011;34538;48.836;9.174;2023-09-19T07:44:07;3.70;;;1.27;;
48743;SDS011;34538;48.836;9.174;2023-09-19T07:46:36;3.08;;;1.48;;
48743;SDS011;34538;48.836;9.174;2023-09-19T07:49:03;3.38;;;1.52;;
48743;SDS011;34538;48.836;9.174;2023-09-19T07:51:30;2.15;;;1.35;;
48743;SDS011;34538;48.836;9.174;2023-09-19T07:53:58;3.60;;;1.40;;
48743;SDS011;34538;48.836;9.174;2023-09-19T07:56:25;6.18;;;1.50;;
48743;SDS011;34538;48.836;9.174;2023-09-19T07:58:52;4.13;;;1.42;;
48743;SDS011;34538;48.836;9.174;2023-09-19T08:01:19;4.93;;;1.40;;
48743;SDS011;34538;48.836;9.174;2023-09-19T08:03:50;4.30;;;1.00;;
48743;SDS011;34538;48.836;9.174;2023-09-19T08:06:17;3.67;;;1.08;;
48743;SDS011;34538;48.836;9.174;2023-09-19T08:08:45;2.67;;;1.15;;
48743;SDS011;34538;48.836;9.174;2023-09-19T08:11:14;2.95;;;1.17;;
48743;SDS011;34538;48.836;9.174;2023-09-19T08:13:46;3.38;;;1.00;;
48743;SDS011;34538;48.836;9.174;2023-09-19T08:16:14;1.67;;;1.10;;
48743;SDS011;34538;48.836;9.174;2023-09-19T08:18:41;3.08;;;1.23;;
48743;SDS011;34538;48.836;9.174;2023-09-19T08:21:11;2.58;;;1.20;;
48743;SDS011;34538;48.836;9.174;2023-09-19T08:23:38;2.30;;;1.30;;
48743;SDS011;34538;48.836;9.174;2023-09-19T08:26:05;3.63;;;1.75;;
48743;SDS011;34538;48.836;9.174;2023-09-19T08:28:33;5.38;;;1.25;;
48743;SDS011;34538;48.836;9.174;2023-09-19T08:31:01;3.15;;;1.25;;
48743;SDS011;34538;48.836;9.174;2023-09-19T08:33:30;4.15;;;1.15;;
48743;SDS011;34538;48.836;9.174;2023-09-19T08:35:58;3.95;;;1.00;;
48743;SDS011;34538;48.836;9.174;2023-09-19T08:38:26;6.65;;;1.15;;
48743;SDS011;34538;48.836;9.174;2023-09-19T08:40:56;3.43;;;1.40;;
48743;SDS011;34538;48.836;9.174;2023-09-19T08:43:24;2.95;;;1.17;;
48743;SDS011;34538;48.836;9.174;2023-09-19T08:45:51;3.10;;;1.15;;
48743;SDS011;34538;48.836;9.174;2023-09-19T08:48:25;2.83;;;1.15;;
48743;SDS011;34538;48.836;9.174;2023-09-19T08:50:55;4.45;;;1.17;;
48743;SDS011;34538;48.836;9.174;2023-09-19T08:53:30;2.38;;;1.45;;
48743;SDS011;34538;48.836;9.174;2023-09-19T08:56:03;4.18;;;1.15;;
48743;SDS011;34538;48.836;9.174;2023-09-19T08:58:38;2.65;;;0.95;;
48743;SDS011;34538;48.836;9.174;2023-09-19T09:01:12;1.60;;;1.00;;
48743;SDS011;34538;48.836;9.174;2023-09-19T09:03:41;2.22;;;0.93;;
48743;SDS011;34538;48.836;9.174;2023-09-19T09:06:11;2.53;;;0.88;;
48743;SDS011;34538;48.836;9.174;2023-09-19T09:08:43;2.43;;;1.00;;
48743;SDS011;34538;48.836;9.174;2023-09-19T09:11:10;1.95;;;0.80;;
48743;SDS011;34538;48.836;9.174;2023-09-19T09:13:37;1.33;;;0.75;;
48743;SDS011;34538;48.836;9.174;2023-09-19T09:16:06;3.17;;;1.00;;
48743;SDS011;34538;48.836;9.174;2023-09-19T09:18:33;1.55;;;0.90;;
48743;SDS011;34538;48.836;9.174;2023-09-19T09:21:00;1.83;;;1.00;;
48743;SDS011;34538;48.836;9.174;2023-09-19T09:23:27;2.00;;;0.80;;
48743;SDS011;34538;48.836;9.174;2023-09-19T09:25:56;2.92;;;0.98;;
48743;SDS011;34538;48.836;9.174;2023-09-19T09:28:24;1.13;;;0.70;;
48743;SDS011;34538;48.836;9.174;2023-09-19T09:30:53;1.25;;;0.63;;
48743;SDS011;34538;48.836;9.174;2023-09-19T09:33:20;1.20;;;0.75;;
48743;SDS011;34538;48.836;9.174;2023-09-19T09:35:48;1.95;;;0.93;;
48743;SDS011;34538;48.836;9.174;2023-09-19T09:38:17;3.22;;;1.08;;
48743;SDS011;34538;48.836;9.174;2023-09-19T09:40:48;2.90;;;1.00;;
48743;SDS011;34538;48.836;9.174;2023-09-19T09:43:28;3.03;;;0.90;;
48743;SDS011;34538;48.836;9.174;2023-09-19T09:46:13;2.85;;;0.90;;
48743;SDS011;34538;48.836;9.174;2023-09-19T09:48:58;2.08;;;0.80;;
48743;SDS011;34538;48.836;9.174;2023-09-19T09:51:41;1.27;;;0.70;;
48743;SDS011;34538;48.836;9.174;2023-09-19T09:56:52;1.23;;;0.90;;
48743;SDS011;34538;48.836;9.174;2023-09-19T09:59:47;2.65;;;0.98;;
48743;SDS011;34538;48.836;9.174;2023-09-19T10:02:21;1.75;;;0.80;;
48743;SDS011;34538;48.836;9.174;2023-09-19T10:04:54;2.13;;;0.90;;
48743;SDS011;34538;48.836;9.174;2023-09-19T10:07:39;3.40;;;0.90;;
48743;SDS011;34538;48.836;9.174;2023-09-19T10:10:13;0.90;;;0.70;;
48743;SDS011;34538;48.836;9.174;2023-09-19T10:12:42;3.38;;;0.93;;
48743;SDS011;34538;48.836;9.174;2023-09-19T10:15:15;4.75;;;1.00;;
48743;SDS011;34538;48.836;9.174;2023-09-19T10:17:45;2.92;;;1.10;;
48743;SDS011;34538;48.836;9.174;2023-09-19T10:20:14;1.55;;;0.93;;
48743;SDS011;34538;48.836;9.174;2023-09-19T10:22:59;1.85;;;0.73;;
48743;SDS011;34538;48.836;9.174;2023-09-19T10:25:27;1.70;;;0.80;;
48743;SDS011;34538;48.836;9.174;2023-09-19T10:27:55;3.03;;;0.82;;
48743;SDS011;34538;48.836;9.174;2023-09-19T10:30:27;1.83;;;0.90;;
48743;SDS011;34538;48.836;9.174;2023-09-19T10:35:26;2.00;;;0.85;;
48743;SDS011;34538;48.836;9.174;2023-09-19T10:37:54;4.70;;;1.08;;
48743;SDS011;34538;48.836;9.174;2023-09-19T10:40:23;1.67;;;0.70;;
48743;SDS011;34538;48.836;9.174;2023-09-19T10:42:58;1.75;;;0.80;;
48743;SDS011;34538;48.836;9.174;2023-09-19T10:45:31;1.85;;;0.98;;
48743;SDS011;34538;48.836;9.174;2023-09-19T10:48:00;1.10;;;0.60;;
48743;SDS011;34538;48.836;9.174;2023-09-19T10:50:28;2.00;;;0.80;;
48743;SDS011;34538;48.836;9.174;2023-09-19T10:53:04;2.03;;;0.80;;
48743;SDS011;34538;48.836;9.174;2023-09-19T10:55:33;3.63;;;0.80;;
48743;SDS011;34538;48.836;9.174;2023-09-19T10:58:02;1.95;;;0.63;;
48743;SDS011;34538;48.836;9.174;2023-09-19T11:03:19;1.10;;;0.70;;
48743;SDS011;34538;48.836;9.174;2023-09-19T11:06:04;2.10;;;0.90;;
48743;SDS011;34538;48.836;9.174;2023-09-19T11:11:44;1.85;;;0.90;;
48743;SDS011;34538;48.836;9.174;2023-09-19T11:14:16;1.00;;;0.68;;
48743;SDS011;34538;48.836;9.174;2023-09-19T11:20:21;1.35;;;0.80;;
48743;SDS011;34538;48.836;9.174;2023-09-19T11:23:17;3.22;;;0.70;;
48743;SDS011;34538;48.836;9.174;2023-09-19T11:25:52;1.75;;;0.82;;
48743;SDS011;34538;48.836;9.174;2023-09-19T11:28:32;1.88;;;0.82;;
48743;SDS011;34538;48.836;9.174;2023-09-19T11:40:10;2.80;;;0.65;;
48743;SDS011;34538;48.836;9.174;2023-09-19T11:42:41;2.13;;;0.70;;
48743;SDS011;34538;48.836;9.174;2023-09-19T11:48:11;1.50;;;0.80;;
48743;SDS011;34538;48.836;9.174;2023-09-19T11:50:42;2.30;;;0.80;;
48743;SDS011;34538;48.836;9.174;2023-09-19T11:53:09;3.30;;;0.70;;
48743;SDS011;34538;48.836;9.174;2023-09-19T11:55:37;2.10;;;0.75;;
48743;SDS011;34538;48.836;9.174;2023-09-19T11:58:04;1.77;;;0.80;;
48743;SDS011;34538;48.836;9.174;2023-09-19T12:00:32;1.83;;;0.80;;
48743;SDS011;34538;48.836;9.174;2023-09-19T12:03:02;2.38;;;0.90;;
48743;SDS011;34538;48.836;9.174;2023-09-19T12:05:34;1.52;;;0.68;;
48743;SDS011;34538;48.836;9.174;2023-09-19T12:08:03;3.22;;;0.75;;
48743;SDS011;34538;48.836;9.174;2023-09-19T12:10:33;1.58;;;0.75;;
48743;SDS011;34538;48.836;9.174;2023-09-19T12:13:09;1.90;;;0.80;;
48743;SDS011;34538;48.836;9.174;2023-09-19T12:15:39;2.15;;;0.60;;
48743;SDS011;34538;48.836;9.174;2023-09-19T12:20:51;3.10;;;0.85;;
48743;SDS011;34538;48.836;9.174;2023-09-19T12:23:21;2.83;;;0.82;;
48743;SDS011;34538;48.836;9.174;2023-09-19T12:25:47;5.63;;;0.82;;
48743;SDS011;34538;48.836;9.174;2023-09-19T12:28:17;1.77;;;0.70;;
48743;SDS011;34538;48.836;9.174;2023-09-19T12:30:47;2.35;;;0.70;;
48743;SDS011;34538;48.836;9.174;2023-09-19T12:33:17;2.25;;;0.80;;
48743;SDS011;34538;48.836;9.174;2023-09-19T12:35:46;1.60;;;0.80;;
48743;SDS011;34538;48.836;9.174;2023-09-19T12:38:23;2.72;;;0.80;;
48743;SDS011;34538;48.836;9.174;2023-09-19T12:40:53;3.85;;;0.77;;
48743;SDS011;34538;48.836;9.174;2023-09-19T12:43:22;2.25;;;0.80;;
48743;SDS011;34538;48.836;9.174;2023-09-19T12:45:49;1.55;;;0.68;;
48743;SDS011;34538;48.836;9.174;2023-09-19T12:48:18;1.42;;;0.60;;
48743;SDS011;34538;48.836;9.174;2023-09-19T12:50:59;2.35;;;1.23;;
48743;SDS011;34538;48.836;9.174;2023-09-19T12:53:32;2.97;;;0.80;;
48743;SDS011;34538;48.836;9.174;2023-09-19T12:56:03;2.63;;;0.80;;
48743;SDS011;34538;48.836;9.174;2023-09-19T12:58:32;2.28;;;0.98;;
48743;SDS011;34538;48.836;9.174;2023-09-19T13:01:00;1.15;;;0.77;;
48743;SDS011;34538;48.836;9.174;2023-09-19T13:03:28;1.33;;;0.63;;
48743;SDS011;34538;48.836;9.174;2023-09-19T13:05:56;2.90;;;0.75;;
48743;SDS011;34538;48.836;9.174;2023-09-19T13:08:26;2.13;;;0.85;;
48743;SDS011;34538;48.836;9.174;2023-09-19T13:11:01;2.93;;;0.63;;
48743;SDS011;34538;48.836;9.174;2023-09-19T13:13:27;2.10;;;0.63;;
48743;SDS011;34538;48.836;9.174;2023-09-19T13:15:55;1.27;;;0.52;;
48743;SDS011;34538;48.836;9.174;2023-09-19T13:18:23;3.50;;;0.80;;
48743;SDS011;34538;48.836;9.174;2023-09-19T13:21:05;1.38;;;0.73;;
48743;SDS011;34538;48.836;9.174;2023-09-19T13:23:32;1.55;;;0.50;;
48743;SDS011;34538;48.836;9.174;2023-09-19T13:26:00;2.53;;;0.70;;
48743;SDS011;34538;48.836;9.174;2023-09-19T13:28:29;1.60;;;0.80;;
48743;SDS011;34538;48.836;9.174;2023-09-19T13:30:56;2.38;;;0.80;;
48743;SDS011;34538;48.836;9.174;2023-09-19T13:33:23;2.17;;;1.08;;
48743;SDS011;34538;48.836;9.174;2023-09-19T13:35:51;2.50;;;0.88;;
48743;SDS011;34538;48.836;9.174;2023-09-19T13:38:18;1.08;;;0.60;;
48743;SDS011;34538;48.836;9.174;2023-09-19T13:40:47;1.65;;;0.77;;
48743;SDS011;34538;48.836;9.174;2023-09-19T13:43:16;2.03;;;1.42;;
48743;SDS011;34538;48.836;9.174;2023-09-19T13:45:43;2.63;;;0.80;;
48743;SDS011;34538;48.836;9.174;2023-09-19T13:48:10;1.48;;;0.75;;
48743;SDS011;34538;48.836;9.174;2023-09-19T13:50:37;1.02;;;0.63;;
48743;SDS011;34538;48.836;9.174;2023-09-19T13:53:07;1.73;;;0.80;;
48743;SDS011;34538;48.836;9.174;2023-09-19T13:55:34;1.48;;;0.63;;
48743;SDS011;34538;48.836;9.174;2023-09-19T13:58:03;1.10;;;0.60;;
48743;SDS011;34538;48.836;9.174;2023-09-19T14:00:33;1.40;;;0.90;;
48743;SDS011;34538;48.836;9.174;2023-09-19T14:03:00;3.20;;;0.75;;
48743;SDS011;34538;48.836;9.174;2023-09-19T14:05:27;1.67;;;0.70;;
48743;SDS011;34538;48.836;9.174;2023-09-19T14:07:55;3.13;;;0.80;;
48743;SDS011;34538;48.836;9.174;2023-09-19T14:10:24;2.75;;;0.85;;
48743;SDS011;34538;48.836;9.174;2023-09-19T14:12:52;4.95;;;1.13;;
48743;SDS011;34538;48.836;9.174;2023-09-19T14:15:19;1.98;;;0.90;;
48743;SDS011;34538;48.836;9.174;2023-09-19T14:17:46;1.35;;;0.80;;
48743;SDS011;34538;48.836;9.174;2023-09-19T14:20:13;3.05;;;0.88;;
48743;SDS011;34538;48.836;9.174;2023-09-19T14:22:40;2.05;;;0.80;;
48743;SDS011;34538;48.836;9.174;2023-09-19T14:25:07;1.75;;;0.88;;
48743;SDS011;34538;48.836;9.174;2023-09-19T14:27:34;1.88;;;0.80;;
48743;SDS011;34538;48.836;9.174;2023-09-19T14:30:01;1.58;;;1.05;;
48743;SDS011;34538;48.836;9.174;2023-09-19T14:32:29;2.08;;;1.00;;
48743;SDS011;34538;48.836;9.174;2023-09-19T14:34:57;3.40;;;0.65;;
48743;SDS011;34538;48.836;9.174;2023-09-19T14:37:24;2.08;;;0.70;;
48743;SDS011;34538;48.836;9.174;2023-09-19T14:39:53;2.65;;;1.33;;
48743;SDS011;34538;48.836;9.174;2023-09-19T14:42:19;1.73;;;0.80;;
48743;SDS011;34538;48.836;9.174;2023-09-19T14:44:46;0.88;;;0.63;;
48743;SDS011;34538;48.836;9.174;2023-09-19T14:47:13;1.55;;;0.85;;
48743;SDS011;34538;48.836;9.174;2023-09-19T14:49:41;1.20;;;0.70;;
48743;SDS011;34538;48.836;9.174;2023-09-19T14:52:11;2.28;;;0.80;;
48743;SDS011;34538;48.836;9.174;2023-09-19T14:54:40;1.98;;;1.00;;
48743;SDS011;34538;48.836;9.174;2023-09-19T14:57:07;0.60;;;0.45;;
48743;SDS011;34538;48.836;9.174;2023-09-19T14:59:35;1.88;;;0.85;;
48743;SDS011;34538;48.836;9.174;2023-09-19T15:02:03;3.55;;;1.05;;
48743;SDS011;34538;48.836;9.174;2023-09-19T15:04:29;1.13;;;0.70;;
48743;SDS011;34538;48.836;9.174;2023-09-19T15:06:56;1.38;;;0.80;;
48743;SDS011;34538;48.836;9.174;2023-09-19T15:09:24;1.98;;;0.73;;
48743;SDS011;34538;48.836;9.174;2023-09-19T15:11:52;1.80;;;0.82;;
48743;SDS011;34538;48.836;9.174;2023-09-19T15:14:18;1.27;;;0.55;;
48743;SDS011;34538;48.836;9.174;2023-09-19T15:16:46;2.35;;;0.75;;
48743;SDS011;34538;48.836;9.174;2023-09-19T15:19:13;1.40;;;0.70;;
48743;SDS011;34538;48.836;9.174;2023-09-19T15:21:40;1.85;;;0.70;;
48743;SDS011;34538;48.836;9.174;2023-09-19T15:24:07;0.77;;;0.63;;
48743;SDS011;34538;48.836;9.174;2023-09-19T15:26:36;1.10;;;0.70;;
48743;SDS011;34538;48.836;9.174;2023-09-19T15:29:04;1.52;;;0.60;;
48743;SDS011;34538;48.836;9.174;2023-09-19T15:31:32;3.00;;;0.85;;
48743;SDS011;34538;48.836;9.174;2023-09-19T15:34:01;0.95;;;0.68;;